Time;durP1;ratioP1;P1;durP2;ratioP2;P2;SDS_P1;SDS_P2;PMS_P1;PMS_P2;Temp;Humidity;BMP_temperature;BMP_pressure;BME280_temperature;BME280_humidity;BME280_pressure;Samples;Min_cycle;Max_cycle;Signal;HPM_P1;HPM_P2
2023/12/19 00:01:20;;;;;;;14.35;7.50;;;8.20;99.90;;;;;;4967963;28;20708;-85
2023/12/19 00:03:45;;;;;;;14.90;7.10;;;8.20;99.90;;;;;;4950883;28;20524;-85
2023/12/19 00:06:11;;;;;;;19.27;7.75;;;8.20;99.90;;;;;;4951559;28;20393;-84
2023/12/19 00:08:36;;;;;;;15.20;7.28;;;8.20;99.90;;;;;;4951199;28;20022;-85
2023/12/19 00:11:02;;;;;;;14.93;7.43;;;8.20;99.90;;;;;;4953883;28;20034;-83
2023/12/19 00:13:28;;;;;;;14.55;7.65;;;8.20;99.90;;;;;;4951167;28;20604;-84
2023/12/19 00:15:53;;;;;;;17.13;8.23;;;8.20;99.90;;;;;;4968319;28;20030;-86
2023/12/19 00:18:19;;;;;;;16.48;7.30;;;8.20;99.90;;;;;;4950514;28;20026;-84
2023/12/19 00:20:44;;;;;;;15.35;7.80;;;8.20;99.90;;;;;;4968070;28;20023;-85
2023/12/19 00:23:10;;;;;;;17.13;8.40;;;8.20;99.90;;;;;;4950438;28;20421;-84
2023/12/19 00:25:35;;;;;;;13.48;7.80;;;8.20;99.90;;;;;;4951032;28;20018;-85
2023/12/19 00:28:01;;;;;;;12.50;6.85;;;8.20;99.90;;;;;;4968076;28;20089;-84
2023/12/19 00:30:27;;;;;;;16.38;7.40;;;8.20;99.90;;;;;;4965350;28;20055;-84
2023/12/19 00:32:52;;;;;;;14.43;7.50;;;8.20;99.90;;;;;;4966867;28;20030;-84
2023/12/19 00:35:18;;;;;;;19.75;8.40;;;8.20;99.90;;;;;;4949964;28;20029;-85
2023/12/19 00:37:44;;;;;;;15.32;7.68;;;8.20;99.90;;;;;;4950895;28;20427;-84
2023/12/19 00:40:12;;;;;;;16.58;7.80;;;8.20;99.90;;;;;;4967418;28;20158;-85
2023/12/19 00:42:38;;;;;;;16.98;7.80;;;8.20;99.90;;;;;;4966566;28;20429;-85
2023/12/19 00:45:05;;;;;;;13.70;6.90;;;8.20;99.90;;;;;;4951044;28;20015;-84
2023/12/19 00:47:30;;;;;;;25.55;7.75;;;8.20;99.90;;;;;;4967332;28;20022;-85
2023/12/19 00:49:56;;;;;;;16.42;8.10;;;8.20;99.90;;;;;;4950746;28;20022;-84
2023/12/19 00:52:21;;;;;;;12.77;6.95;;;8.20;99.90;;;;;;4966305;28;20019;-86
2023/12/19 00:54:47;;;;;;;13.68;7.30;;;8.20;99.90;;;;;;4950786;28;20366;-84
2023/12/19 00:57:12;;;;;;;14.40;7.28;;;8.20;99.90;;;;;;4963750;28;20046;-85
2023/12/19 00:59:39;;;;;;;14.40;7.63;;;8.20;99.90;;;;;;4966792;28;20016;-85
2023/12/19 01:02:05;;;;;;;13.02;6.65;;;8.20;99.90;;;;;;4968462;28;20034;-84
2023/12/19 01:04:30;;;;;;;14.45;7.55;;;8.20;99.90;;;;;;4970028;28;20018;-84
2023/12/19 01:06:56;;;;;;;15.60;7.32;;;8.20;99.90;;;;;;4953632;28;20481;-87
2023/12/19 01:09:21;;;;;;;16.75;7.10;;;8.20;99.90;;;;;;4953314;28;20143;-86
2023/12/19 01:11:47;;;;;;;14.50;7.07;;;8.20;99.90;;;;;;4972214;28;20046;-84
2023/12/19 01:14:12;;;;;;;14.10;6.93;;;8.20;99.90;;;;;;4972312;28;20038;-85
2023/12/19 01:16:38;;;;;;;17.38;7.43;;;8.20;99.90;;;;;;4971612;28;20516;-85
2023/12/19 01:19:06;;;;;;;13.05;7.57;;;8.20;99.90;;;;;;4973421;28;20072;-86
2023/12/19 01:21:32;;;;;;;12.30;7.25;;;8.20;99.90;;;;;;4972754;28;20022;-85
2023/12/19 01:23:57;;;;;;;12.90;6.95;;;8.20;99.90;;;;;;4976057;28;20015;-85
2023/12/19 01:26:23;;;;;;;14.15;6.70;;;8.20;99.90;;;;;;4977339;28;20029;-84
2023/12/19 01:28:48;;;;;;;18.83;8.38;;;8.10;99.90;;;;;;4973017;28;20026;-83
2023/12/19 01:31:14;;;;;;;14.98;7.82;;;8.10;99.90;;;;;;4972543;28;20027;-86
2023/12/19 01:33:40;;;;;;;14.63;7.82;;;8.10;99.90;;;;;;4973037;28;20078;-84
2023/12/19 01:36:05;;;;;;;11.85;6.85;;;8.10;99.90;;;;;;4972845;28;20081;-84
2023/12/19 01:38:31;;;;;;;14.98;6.82;;;8.10;99.90;;;;;;4972455;28;20022;-83
2023/12/19 01:40:56;;;;;;;14.25;7.85;;;8.10;99.90;;;;;;4972818;28;20030;-85
2023/12/19 01:43:22;;;;;;;13.98;7.35;;;8.10;99.90;;;;;;4954840;28;20038;-85
2023/12/19 01:45:51;;;;;;;17.58;7.47;;;8.10;99.90;;;;;;4955712;28;20022;-85
2023/12/19 01:48:17;;;;;;;13.98;7.28;;;8.10;99.90;;;;;;4955322;28;20493;-85
2023/12/19 01:50:43;;;;;;;13.02;6.93;;;8.10;99.90;;;;;;4971242;28;20058;-85
2023/12/19 01:53:10;;;;;;;14.43;8.00;;;8.10;99.90;;;;;;4955575;28;20027;-85
2023/12/19 01:55:38;;;;;;;13.95;7.93;;;8.00;99.90;;;;;;4970377;28;20133;-85
2023/12/19 01:58:04;;;;;;;12.45;7.20;;;8.10;99.90;;;;;;4969955;28;20015;-86
2023/12/19 02:00:30;;;;;;;12.98;7.05;;;8.10;99.90;;;;;;4954033;28;20019;-84
2023/12/19 02:02:57;;;;;;;14.98;7.57;;;8.10;99.90;;;;;;4954784;28;20025;-85
2023/12/19 02:05:23;;;;;;;17.23;7.30;;;8.10;99.90;;;;;;4955179;28;20507;-85
2023/12/19 02:07:48;;;;;;;15.63;7.70;;;8.10;99.90;;;;;;4972195;28;20035;-85
2023/12/19 02:10:15;;;;;;;13.80;7.82;;;8.10;99.90;;;;;;4954936;28;20023;-84
2023/12/19 02:12:42;;;;;;;14.95;8.10;;;8.10;99.90;;;;;;4972213;28;20049;-84
2023/12/19 02:15:09;;;;;;;17.08;7.60;;;8.10;99.90;;;;;;4954589;28;20403;-84
2023/12/19 02:17:34;;;;;;;14.70;7.70;;;8.10;99.90;;;;;;4971548;28;20030;-86
2023/12/19 02:20:00;;;;;;;20.45;8.48;;;8.10;99.90;;;;;;4954598;28;20029;-84
2023/12/19 02:22:26;;;;;;;14.27;7.85;;;8.10;99.90;;;;;;4972110;28;20042;-84
2023/12/19 02:24:52;;;;;;;16.67;7.95;;;8.10;99.90;;;;;;4954834;28;20070;-85
2023/12/19 02:27:22;;;;;;;15.95;7.60;;;8.10;99.90;;;;;;4970400;28;20023;-85
2023/12/19 02:29:48;;;;;;;17.52;8.07;;;8.10;99.90;;;;;;4957683;28;20023;-84
2023/12/19 02:32:13;;;;;;;15.00;7.60;;;8.10;99.90;;;;;;4973451;28;20093;-85
2023/12/19 02:34:39;;;;;;;15.32;7.95;;;8.10;99.90;;;;;;4972464;28;20179;-84
2023/12/19 02:37:04;;;;;;;15.55;7.38;;;8.10;99.90;;;;;;4971891;28;20031;-84
2023/12/19 02:39:30;;;;;;;16.70;7.65;;;8.10;99.90;;;;;;4969279;28;20023;-87
2023/12/19 02:41:55;;;;;;;16.60;7.82;;;8.10;99.90;;;;;;4971681;28;20023;-83
2023/12/19 02:44:21;;;;;;;17.50;7.35;;;8.10;99.90;;;;;;4954747;28;20074;-85
2023/12/19 02:46:46;;;;;;;16.08;7.78;;;8.10;99.90;;;;;;4954100;28;20027;-85
2023/12/19 02:49:12;;;;;;;14.52;7.50;;;8.10;99.90;;;;;;4972929;28;20023;-85
2023/12/19 02:51:37;;;;;;;16.00;7.95;;;8.10;99.90;;;;;;4969374;28;20469;-86
2023/12/19 02:54:03;;;;;;;15.13;8.13;;;8.10;99.90;;;;;;4971398;28;20385;-84
2023/12/19 02:56:29;;;;;;;13.35;7.82;;;8.10;99.90;;;;;;4956253;28;20453;-85
2023/12/19 02:58:54;;;;;;;15.23;7.35;;;8.10;99.90;;;;;;4971297;28;20031;-85
2023/12/19 03:01:20;;;;;;;12.82;6.97;;;8.10;99.90;;;;;;4954091;28;20038;-85
2023/12/19 03:03:45;;;;;;;14.88;7.05;;;8.10;99.90;;;;;;4970443;28;20037;-85
2023/12/19 03:06:14;;;;;;;12.68;7.05;;;8.10;99.90;;;;;;4952797;28;20768;-86
2023/12/19 03:08:45;;;;;;;15.15;7.97;;;8.10;99.90;;;;;;4971434;28;20023;-85
2023/12/19 03:11:10;;;;;;;15.52;7.25;;;8.10;99.90;;;;;;4968456;28;20027;-86
2023/12/19 03:13:36;;;;;;;14.85;6.93;;;8.10;99.90;;;;;;4959491;28;20085;-85
2023/12/19 03:16:01;;;;;;;16.23;7.25;;;8.00;99.90;;;;;;4970077;28;20037;-84
2023/12/19 03:18:27;;;;;;;13.75;7.43;;;8.00;99.90;;;;;;4967888;28;20026;-85
2023/12/19 03:20:52;;;;;;;18.13;8.13;;;8.00;99.90;;;;;;4955219;28;20015;-85
2023/12/19 03:23:18;;;;;;;15.23;7.75;;;8.00;99.90;;;;;;4969314;28;20789;-85
2023/12/19 03:25:44;;;;;;;17.38;7.78;;;8.00;99.90;;;;;;4969289;28;20101;-86
2023/12/19 03:28:10;;;;;;;16.83;7.78;;;8.00;99.90;;;;;;4959028;28;20070;-84
2023/12/19 03:30:36;;;;;;;16.73;7.82;;;8.00;99.90;;;;;;4951417;28;20486;-86
2023/12/19 03:33:02;;;;;;;12.15;6.25;;;8.00;99.90;;;;;;4968429;28;20099;-85
2023/12/19 03:35:27;;;;;;;13.82;7.18;;;8.00;99.90;;;;;;4970608;28;20089;-85
2023/12/19 03:37:53;;;;;;;15.30;7.97;;;8.00;99.90;;;;;;4969503;28;20441;-84
2023/12/19 03:40:19;;;;;;;13.40;6.55;;;8.00;99.90;;;;;;4969425;28;20481;-85
2023/12/19 03:42:44;;;;;;;12.98;6.80;;;8.10;99.90;;;;;;4968504;28;20019;-83
2023/12/19 03:45:10;;;;;;;13.10;7.50;;;8.00;99.90;;;;;;4953666;28;20023;-85
2023/12/19 03:47:37;;;;;;;12.63;7.22;;;8.10;99.90;;;;;;4970418;28;20090;-84
2023/12/19 03:50:04;;;;;;;10.60;6.68;;;8.00;99.90;;;;;;4952457;28;20488;-85
2023/12/19 03:52:29;;;;;;;14.63;6.93;;;8.10;99.90;;;;;;4952854;28;20019;-86
2023/12/19 03:54:55;;;;;;;15.32;7.38;;;8.00;99.90;;;;;;4968152;28;20082;-86
2023/12/19 03:57:21;;;;;;;15.90;6.97;;;8.00;99.90;;;;;;4952942;28;20019;-83
2023/12/19 03:59:46;;;;;;;14.68;6.75;;;8.00;99.90;;;;;;4970770;28;20018;-86
2023/12/19 04:02:12;;;;;;;12.40;7.25;;;8.00;99.90;;;;;;4969559;28;20034;-83
2023/12/19 04:04:37;;;;;;;13.48;6.70;;;8.00;99.90;;;;;;4951576;28;20022;-84
2023/12/19 04:07:03;;;;;;;12.93;7.13;;;8.00;99.90;;;;;;4952833;28;20031;-86
2023/12/19 04:09:28;;;;;;;12.15;6.53;;;8.10;99.90;;;;;;4970636;28;20023;-85
2023/12/19 04:11:54;;;;;;;13.95;6.88;;;8.00;99.90;;;;;;4952404;28;20023;-84
2023/12/19 04:14:20;;;;;;;13.60;6.82;;;8.00;99.90;;;;;;4969833;28;20027;-85
2023/12/19 04:16:45;;;;;;;15.43;7.45;;;8.00;99.90;;;;;;4951778;28;20397;-85
2023/12/19 04:19:11;;;;;;;12.75;7.18;;;8.00;99.90;;;;;;4955486;28;20034;-83
2023/12/19 04:21:37;;;;;;;14.75;7.18;;;8.00;99.90;;;;;;4968254;28;20015;-85
2023/12/19 04:24:05;;;;;;;12.65;6.47;;;8.00;99.90;;;;;;4970043;28;20019;-84
2023/12/19 04:26:31;;;;;;;15.60;8.07;;;8.00;99.90;;;;;;4952733;28;20034;-83
2023/12/19 04:28:56;;;;;;;15.75;7.60;;;8.00;99.90;;;;;;4952710;28;20101;-86
2023/12/19 04:31:22;;;;;;;15.30;7.28;;;8.10;99.90;;;;;;4967211;28;20753;-84
2023/12/19 04:33:47;;;;;;;15.43;7.63;;;8.00;99.90;;;;;;4968248;28;20397;-84
2023/12/19 04:36:13;;;;;;;12.65;6.57;;;8.10;99.90;;;;;;4969745;28;20039;-85
2023/12/19 04:38:39;;;;;;;16.15;7.97;;;8.00;99.90;;;;;;4953079;28;20049;-86
2023/12/19 04:41:05;;;;;;;15.10;7.90;;;8.00;99.90;;;;;;4951933;28;20018;-85
2023/12/19 04:43:31;;;;;;;14.68;7.50;;;8.00;99.90;;;;;;4954589;28;20081;-85
2023/12/19 04:45:57;;;;;;;13.70;7.45;;;8.00;99.90;;;;;;4949305;28;20038;-86
2023/12/19 04:48:22;;;;;;;13.13;6.35;;;8.00;99.90;;;;;;4952658;28;20026;-86
2023/12/19 04:50:48;;;;;;;14.25;7.55;;;7.90;99.90;;;;;;4969016;28;20033;-86
2023/12/19 04:53:15;;;;;;;13.60;7.63;;;7.90;99.90;;;;;;4948920;28;20056;-84
2023/12/19 04:55:40;;;;;;;16.38;8.38;;;7.90;99.90;;;;;;4949985;28;20019;-84
2023/12/19 04:58:06;;;;;;;14.70;6.78;;;7.90;99.90;;;;;;4965703;28;20175;-85
2023/12/19 05:00:31;;;;;;;14.00;7.65;;;8.00;99.90;;;;;;4953936;28;20015;-84
2023/12/19 05:02:57;;;;;;;16.73;7.60;;;7.90;99.90;;;;;;4969475;28;20023;-85
2023/12/19 05:05:22;;;;;;;13.15;7.53;;;8.00;99.90;;;;;;4969529;28;20019;-84
2023/12/19 05:07:48;;;;;;;16.10;7.95;;;8.00;99.90;;;;;;4969929;28;20019;-84
2023/12/19 05:10:14;;;;;;;15.65;7.35;;;7.90;99.90;;;;;;4966129;28;20524;-85
2023/12/19 05:12:39;;;;;;;16.00;7.70;;;7.90;99.90;;;;;;4954223;28;20038;-85
2023/12/19 05:15:06;;;;;;;14.27;7.55;;;7.90;99.90;;;;;;4969264;28;20053;-85
2023/12/19 05:17:32;;;;;;;15.55;6.40;;;7.90;99.90;;;;;;4952069;28;20035;-85
2023/12/19 05:19:58;;;;;;;16.38;7.25;;;7.90;99.90;;;;;;4952391;28;20032;-86
2023/12/19 05:22:24;;;;;;;13.35;7.38;;;7.90;99.90;;;;;;4965809;28;20010;-85
2023/12/19 05:24:49;;;;;;;16.67;7.50;;;7.90;99.90;;;;;;4967735;28;20015;-85
2023/12/19 05:27:15;;;;;;;12.98;7.05;;;7.90;99.90;;;;;;4952463;28;20054;-83
2023/12/19 05:29:40;;;;;;;16.17;7.07;;;7.90;99.90;;;;;;4951842;28;20105;-84
2023/12/19 05:32:06;;;;;;;16.25;6.75;;;7.90;99.90;;;;;;4950671;28;20091;-84
2023/12/19 05:34:32;;;;;;;14.38;7.32;;;7.90;99.90;;;;;;4946208;29;20030;-86
2023/12/19 05:36:57;;;;;;;16.38;7.72;;;7.90;99.90;;;;;;4949891;28;20031;-84
2023/12/19 05:39:23;;;;;;;12.63;6.43;;;7.90;99.90;;;;;;4948823;28;20046;-84
2023/12/19 05:41:49;;;;;;;13.80;7.05;;;7.90;99.90;;;;;;4965831;28;20034;-84
2023/12/19 05:44:16;;;;;;;15.63;7.30;;;7.90;99.90;;;;;;4952181;28;20026;-84
2023/12/19 05:46:42;;;;;;;17.00;7.30;;;7.90;99.90;;;;;;4965597;28;20015;-85
2023/12/19 05:49:08;;;;;;;21.23;8.50;;;7.90;99.90;;;;;;4952045;28;20030;-84
2023/12/19 05:51:40;;;;;;;12.98;7.50;;;7.90;99.90;;;;;;4953056;28;20037;-84
2023/12/19 05:54:06;;;;;;;15.20;7.82;;;7.90;99.90;;;;;;4972769;28;20026;-84
2023/12/19 05:56:33;;;;;;;15.20;7.10;;;7.90;99.90;;;;;;4971628;28;20118;-85
2023/12/19 05:58:58;;;;;;;16.20;6.95;;;7.90;99.90;;;;;;4970299;28;20015;-84
2023/12/19 06:01:24;;;;;;;16.85;7.57;;;8.00;99.90;;;;;;4969904;28;20582;-86
2023/12/19 06:03:49;;;;;;;17.00;7.38;;;8.00;99.90;;;;;;4972683;28;20039;-84
2023/12/19 06:06:15;;;;;;;17.13;7.70;;;8.00;99.90;;;;;;4968598;28;20027;-86
2023/12/19 06:08:42;;;;;;;15.00;7.95;;;8.00;99.90;;;;;;4950780;29;20533;-84
2023/12/19 06:11:09;;;;;;;17.75;7.65;;;8.00;99.90;;;;;;4968301;28;20027;-84
2023/12/19 06:13:34;;;;;;;15.77;7.72;;;8.00;99.90;;;;;;4951302;28;20031;-86
2023/12/19 06:16:00;;;;;;;16.10;7.93;;;8.00;99.90;;;;;;4972020;28;20038;-83
2023/12/19 06:18:25;;;;;;;12.77;7.57;;;8.00;99.90;;;;;;4972375;28;20027;-84
2023/12/19 06:20:51;;;;;;;14.32;7.63;;;7.90;99.90;;;;;;4970407;28;20584;-84
2023/12/19 06:23:16;;;;;;;14.23;7.75;;;8.00;99.90;;;;;;4953094;28;20015;-86
2023/12/19 06:25:42;;;;;;;16.65;7.70;;;8.00;99.90;;;;;;4954333;28;20027;-85
2023/12/19 06:28:08;;;;;;;16.15;7.53;;;8.00;99.90;;;;;;4972232;28;20019;-85
2023/12/19 06:30:33;;;;;;;14.90;7.32;;;8.00;99.90;;;;;;4971518;28;20019;-85
2023/12/19 06:32:59;;;;;;;17.88;6.88;;;8.00;99.90;;;;;;4954663;28;20022;-85
2023/12/19 06:35:27;;;;;;;16.52;7.88;;;8.00;99.90;;;;;;4970544;28;20027;-86
2023/12/19 06:37:52;;;;;;;14.32;7.28;;;8.00;99.90;;;;;;4965774;28;20027;-84
2023/12/19 06:40:18;;;;;;;13.27;6.68;;;8.00;99.90;;;;;;4953996;28;20026;-85
2023/12/19 06:42:44;;;;;;;14.68;7.13;;;8.00;99.90;;;;;;4971816;28;20023;-85
2023/12/19 06:45:12;;;;;;;12.43;7.25;;;7.90;99.90;;;;;;4953356;28;20092;-85
2023/12/19 06:47:37;;;;;;;14.55;7.25;;;8.00;99.90;;;;;;4948871;29;20027;-85
2023/12/19 06:50:03;;;;;;;14.77;7.18;;;8.00;99.90;;;;;;4956268;28;20030;-83
2023/12/19 06:52:29;;;;;;;13.82;6.97;;;8.00;99.90;;;;;;4954561;28;20027;-86
2023/12/19 06:54:55;;;;;;;13.73;7.55;;;8.00;99.90;;;;;;4951415;28;20031;-84
2023/12/19 06:57:20;;;;;;;16.33;7.72;;;7.90;99.90;;;;;;4971048;28;20180;-84
2023/12/19 06:59:46;;;;;;;15.95;6.90;;;7.90;99.90;;;;;;4971201;28;20396;-85
2023/12/19 07:02:11;;;;;;;11.77;6.22;;;7.90;99.90;;;;;;4952465;28;20019;-85
2023/12/19 07:04:37;;;;;;;15.52;7.10;;;7.90;99.90;;;;;;4952171;28;20031;-85
2023/12/19 07:07:03;;;;;;;12.07;6.82;;;7.90;99.90;;;;;;4971736;28;20029;-84
2023/12/19 07:09:28;;;;;;;16.83;8.32;;;7.80;99.90;;;;;;4970821;28;20030;-83
2023/12/19 07:11:54;;;;;;;14.80;7.28;;;7.90;99.90;;;;;;4968436;28;20023;-86
2023/12/19 07:14:19;;;;;;;15.10;7.60;;;7.80;99.90;;;;;;4969265;28;20076;-84
2023/12/19 07:16:45;;;;;;;12.10;6.63;;;7.80;99.90;;;;;;4967977;28;20037;-84
2023/12/19 07:19:10;;;;;;;16.75;7.97;;;7.80;99.90;;;;;;4969328;28;20081;-84
2023/12/19 07:21:36;;;;;;;15.65;7.55;;;7.80;99.90;;;;;;4961873;28;20078;-84
2023/12/19 07:24:01;;;;;;;11.90;6.45;;;7.80;99.90;;;;;;4966182;28;20015;-84
2023/12/19 07:26:29;;;;;;;14.25;7.25;;;7.80;99.90;;;;;;4953547;28;21371;-83
2023/12/19 07:28:59;;;;;;;13.82;7.15;;;7.80;99.90;;;;;;4966482;28;20106;-85
2023/12/19 07:31:27;;;;;;;14.13;6.80;;;7.80;99.90;;;;;;4968916;28;20026;-86
2023/12/19 07:33:58;;;;;;;17.00;7.35;;;7.80;99.90;;;;;;4967925;28;20412;-84
2023/12/19 07:36:25;;;;;;;15.50;6.78;;;7.80;99.90;;;;;;4952137;28;20114;-83
2023/12/19 07:38:51;;;;;;;17.15;7.13;;;7.80;99.90;;;;;;4969602;28;20696;-85
2023/12/19 07:41:17;;;;;;;17.88;8.07;;;7.80;99.90;;;;;;4967312;28;20025;-85
2023/12/19 07:43:43;;;;;;;13.15;7.03;;;7.90;99.90;;;;;;4970240;28;20484;-84
2023/12/19 07:46:10;;;;;;;13.40;6.38;;;7.90;99.90;;;;;;4969703;28;20046;-84
2023/12/19 07:48:36;;;;;;;11.98;6.30;;;7.90;99.90;;;;;;4968325;28;20440;-86
2023/12/19 07:51:02;;;;;;;14.77;6.43;;;7.90;99.90;;;;;;4949400;28;20019;-86
2023/12/19 07:53:29;;;;;;;15.30;7.15;;;7.90;99.90;;;;;;4948095;28;20023;-86
2023/12/19 07:55:58;;;;;;;12.43;6.47;;;8.00;99.90;;;;;;4952852;28;20038;-85
2023/12/19 07:58:23;;;;;;;12.73;6.90;;;8.00;99.90;;;;;;4953088;28;20310;-85
2023/12/19 08:00:49;;;;;;;16.38;6.97;;;8.00;99.90;;;;;;4968313;28;20484;-84
2023/12/19 08:03:15;;;;;;;14.00;6.88;;;8.00;99.90;;;;;;4948641;28;20040;-84
2023/12/19 08:05:50;;;;;;;13.70;6.55;;;8.00;99.90;;;;;;4948449;28;20026;-85
2023/12/19 08:08:17;;;;;;;14.05;6.82;;;8.10;99.90;;;;;;4970241;28;20022;-85
2023/12/19 08:10:44;;;;;;;12.85;6.65;;;8.10;99.90;;;;;;4950925;28;20019;-84
2023/12/19 08:13:09;;;;;;;12.80;6.50;;;8.10;99.90;;;;;;4950851;28;20111;-84
2023/12/19 08:15:35;;;;;;;13.85;6.85;;;8.10;99.90;;;;;;4947901;28;20110;-85
2023/12/19 08:18:01;;;;;;;13.32;6.90;;;8.20;99.90;;;;;;4969396;28;20026;-84
2023/12/19 08:20:26;;;;;;;14.55;6.10;;;8.20;99.90;;;;;;4965725;28;20022;-85
2023/12/19 08:22:52;;;;;;;12.27;6.95;;;8.20;99.90;;;;;;4952842;28;20030;-85
2023/12/19 08:25:17;;;;;;;12.60;6.07;;;8.20;99.90;;;;;;4967538;28;20477;-85
2023/12/19 08:27:44;;;;;;;13.30;6.70;;;8.20;99.90;;;;;;4952139;28;20489;-84
2023/12/19 08:30:10;;;;;;;4.95;3.10;;;8.20;99.90;;;;;;4962927;28;20436;-87
2023/12/19 08:32:36;;;;;;;4.63;2.97;;;10.40;99.90;;;;;;4968914;28;20029;-87
2023/12/19 08:35:01;;;;;;;9.73;5.30;;;12.00;99.90;;;;;;4969196;28;20023;-84
2023/12/19 08:37:27;;;;;;;11.90;6.25;;;10.30;96.90;;;;;;4953956;28;20034;-85
2023/12/19 08:39:57;;;;;;;17.80;7.32;;;8.80;99.90;;;;;;4949526;28;20057;-84
2023/12/19 08:42:23;;;;;;;14.32;6.95;;;8.30;99.90;;;;;;4950861;28;20532;-84
2023/12/19 08:44:52;;;;;;;13.75;6.75;;;8.10;99.90;;;;;;4966762;28;20042;-85
2023/12/19 08:47:18;;;;;;;16.25;6.32;;;8.00;99.90;;;;;;4951222;28;20475;-85
2023/12/19 08:49:44;;;;;;;11.18;6.63;;;8.00;99.90;;;;;;4967514;28;20019;-84
2023/12/19 08:52:10;;;;;;;13.30;6.53;;;7.90;99.90;;;;;;4965039;28;20034;-84
2023/12/19 08:54:36;;;;;;;11.73;5.95;;;7.90;99.90;;;;;;4947038;28;20027;-85
2023/12/19 08:57:02;;;;;;;11.07;6.13;;;7.90;99.90;;;;;;4966262;28;20030;-85
2023/12/19 08:59:28;;;;;;;11.88;7.25;;;8.20;99.90;;;;;;4948151;28;20107;-85
2023/12/19 09:01:55;;;;;;;15.65;6.88;;;8.20;99.90;;;;;;4967203;28;20041;-84
2023/12/19 09:04:21;;;;;;;13.02;6.93;;;8.20;99.90;;;;;;4964299;28;20622;-85
2023/12/19 09:06:50;;;;;;;14.90;6.40;;;8.10;99.90;;;;;;4965083;28;20019;-84
2023/12/19 09:09:16;;;;;;;17.63;6.10;;;8.10;99.90;;;;;;4963814;28;20027;-85
2023/12/19 09:11:42;;;;;;;13.80;6.78;;;8.10;99.90;;;;;;4968029;28;20041;-84
2023/12/19 09:14:08;;;;;;;13.82;7.03;;;8.10;99.90;;;;;;4946173;28;20027;-86
2023/12/19 09:16:34;;;;;;;14.30;6.32;;;8.10;99.90;;;;;;4948501;28;20039;-84
2023/12/19 09:18:59;;;;;;;12.95;6.82;;;8.00;99.90;;;;;;4964058;28;20030;-85
2023/12/19 09:21:26;;;;;;;13.85;7.35;;;8.00;99.90;;;;;;4950985;28;20037;-85
2023/12/19 09:23:52;;;;;;;14.82;6.30;;;8.10;99.90;;;;;;4969003;28;20046;-83
2023/12/19 09:26:18;;;;;;;14.18;6.65;;;8.10;99.90;;;;;;4967527;28;20031;-84
2023/12/19 09:28:44;;;;;;;12.38;6.30;;;8.10;99.90;;;;;;4971236;28;20014;-85
2023/12/19 09:31:10;;;;;;;14.18;6.00;;;8.10;99.90;;;;;;4967566;28;20033;-84
2023/12/19 09:33:38;;;;;;;15.00;6.97;;;8.10;99.90;;;;;;4966011;28;20026;-84
2023/12/19 09:36:05;;;;;;;13.45;6.15;;;8.10;99.90;;;;;;4972377;28;20019;-84
2023/12/19 09:38:31;;;;;;;11.35;5.90;;;8.10;99.90;;;;;;4970568;28;20069;-83
2023/12/19 09:40:57;;;;;;;22.50;7.05;;;8.10;99.90;;;;;;4951323;28;20077;-84
2023/12/19 09:43:23;;;;;;;13.40;6.32;;;8.10;99.90;;;;;;4953435;28;20027;-85
2023/12/19 09:45:50;;;;;;;11.73;6.38;;;8.20;99.90;;;;;;4964454;28;20027;-86
2023/12/19 09:48:15;;;;;;;19.10;6.65;;;8.20;99.90;;;;;;4971095;28;20561;-86
2023/12/19 09:50:43;;;;;;;12.65;6.25;;;8.10;99.90;;;;;;4952017;28;20050;-85
2023/12/19 09:53:10;;;;;;;12.57;5.53;;;8.20;99.90;;;;;;4952943;28;20480;-86
2023/12/19 09:55:42;;;;;;;13.70;6.43;;;8.20;99.90;;;;;;4966372;28;20076;-85
2023/12/19 09:58:09;;;;;;;14.82;7.43;;;8.20;99.90;;;;;;4949722;28;20027;-85
2023/12/19 10:00:36;;;;;;;11.98;6.45;;;8.20;99.90;;;;;;4970990;28;20488;-86
2023/12/19 10:03:03;;;;;;;13.85;7.60;;;8.20;99.90;;;;;;4953762;28;20031;-86
2023/12/19 10:05:29;;;;;;;13.63;6.97;;;8.20;99.90;;;;;;4967889;28;20444;-85
2023/12/19 10:07:58;;;;;;;14.45;6.75;;;8.20;99.90;;;;;;4966913;28;20027;-85
2023/12/19 10:10:53;;;;;;;13.27;6.40;;;8.20;99.90;;;;;;4949826;28;20031;-86
2023/12/19 10:13:32;;;;;;;15.23;7.00;;;8.20;99.90;;;;;;4962043;28;20671;-83
2023/12/19 10:16:09;;;;;;;11.18;6.03;;;8.20;99.90;;;;;;4970295;28;20125;-85
2023/12/19 10:18:37;;;;;;;13.25;7.45;;;8.20;99.90;;;;;;4969202;28;20473;-85
2023/12/19 10:21:08;;;;;;;15.02;6.45;;;8.20;99.90;;;;;;4967245;28;20432;-85
2023/12/19 10:23:40;;;;;;;14.50;6.85;;;8.20;99.90;;;;;;4953763;28;20165;-84
2023/12/19 10:26:06;;;;;;;15.13;6.68;;;8.20;99.90;;;;;;4953723;28;20070;-85
2023/12/19 10:28:32;;;;;;;13.63;6.80;;;8.20;99.90;;;;;;4953401;28;20659;-86
2023/12/19 10:31:17;;;;;;;18.70;7.40;;;8.30;99.90;;;;;;4953782;28;20476;-85
2023/12/19 10:33:45;;;;;;;15.50;7.38;;;8.30;99.90;;;;;;4951780;28;20105;-85
2023/12/19 10:36:26;;;;;;;13.30;7.20;;;8.30;99.90;;;;;;4951314;28;20658;-84
2023/12/19 10:38:53;;;;;;;9.48;5.75;;;8.30;99.90;;;;;;4954373;28;20057;-85
2023/12/19 10:41:19;;;;;;;10.77;5.97;;;8.30;99.90;;;;;;4968818;28;20042;-86
2023/12/19 10:43:45;;;;;;;14.02;6.78;;;8.30;99.90;;;;;;4968097;28;20037;-85
2023/12/19 10:46:13;;;;;;;13.30;6.57;;;8.40;99.90;;;;;;4966320;28;20030;-84
2023/12/19 10:48:39;;;;;;;14.13;6.75;;;8.40;99.90;;;;;;4964133;28;20027;-84
2023/12/19 10:51:08;;;;;;;10.05;6.32;;;8.40;99.90;;;;;;4953561;28;20030;-85
2023/12/19 10:53:35;;;;;;;10.10;5.88;;;8.40;99.90;;;;;;4951814;28;20105;-86
2023/12/19 10:56:03;;;;;;;12.00;6.43;;;8.40;99.90;;;;;;4967128;28;20027;-84
2023/12/19 10:58:28;;;;;;;10.73;5.70;;;8.40;99.90;;;;;;4952173;28;20034;-84
2023/12/19 11:00:55;;;;;;;6.82;3.25;;;8.50;99.90;;;;;;4950691;28;20106;-83
2023/12/19 11:03:29;;;;;;;5.53;2.45;;;9.10;99.90;;;;;;4967492;28;20027;-86
2023/12/19 11:05:56;;;;;;;8.35;4.93;;;11.50;99.90;;;;;;4952280;28;20440;-87
2023/12/19 11:08:22;;;;;;;10.68;5.47;;;10.40;99.90;;;;;;4951785;28;20027;-85
2023/12/19 11:11:03;;;;;;;10.40;5.68;;;9.60;99.90;;;;;;4952881;28;20019;-84
2023/12/19 11:13:31;;;;;;;10.32;5.70;;;9.20;99.90;;;;;;4961819;28;20082;-87
2023/12/19 11:16:09;;;;;;;11.35;5.85;;;9.00;99.90;;;;;;4964552;28;20030;-87
2023/12/19 11:18:46;;;;;;;11.10;5.80;;;8.90;99.90;;;;;;4949650;28;20030;-85
2023/12/19 11:21:20;;;;;;;9.30;5.53;;;8.80;99.90;;;;;;4967237;28;20034;-87
2023/12/19 11:23:52;;;;;;;11.63;5.80;;;8.70;99.90;;;;;;4945673;28;20050;-87
2023/12/19 11:26:25;;;;;;;13.15;5.75;;;8.60;99.90;;;;;;4955850;28;20037;-84
2023/12/19 11:28:50;;;;;;;13.27;6.35;;;8.60;99.90;;;;;;4967684;28;20151;-86
2023/12/19 11:31:30;;;;;;;12.27;6.10;;;8.50;99.90;;;;;;4968475;28;20097;-86
2023/12/19 11:34:00;;;;;;;11.17;5.77;;;8.50;99.90;;;;;;4948847;28;20505;-86
2023/12/19 11:36:26;;;;;;;10.95;5.65;;;8.50;99.90;;;;;;4951529;28;20290;-87
2023/12/19 11:39:21;;;;;;;10.38;5.68;;;8.50;99.90;;;;;;4948533;28;20073;-83
2023/12/19 11:41:47;;;;;;;11.75;5.80;;;8.50;99.90;;;;;;4955141;28;20023;-86
2023/12/19 11:44:32;;;;;;;9.63;4.97;;;8.50;99.90;;;;;;4952341;28;20073;-86
2023/12/19 11:47:15;;;;;;;10.43;5.32;;;8.50;99.90;;;;;;4952530;28;20030;-86
2023/12/19 11:49:41;;;;;;;10.18;5.25;;;8.50;99.90;;;;;;4963335;28;20066;-85
2023/12/19 11:52:06;;;;;;;8.88;4.60;;;8.50;99.90;;;;;;4952548;28;20031;-87
2023/12/19 11:54:32;;;;;;;10.43;5.03;;;8.50;99.90;;;;;;4950359;28;20035;-86
2023/12/19 11:56:59;;;;;;;9.15;4.82;;;8.50;99.90;;;;;;4952503;28;20157;-86
2023/12/19 11:59:44;;;;;;;10.60;5.30;;;8.50;99.90;;;;;;4962928;28;20030;-85
2023/12/19 12:02:11;;;;;;;10.60;5.60;;;8.50;99.90;;;;;;4947753;28;20106;-86
2023/12/19 12:04:36;;;;;;;11.68;5.70;;;8.50;99.90;;;;;;4965807;28;20554;-87
2023/12/19 12:07:02;;;;;;;11.82;5.20;;;8.50;99.90;;;;;;4952461;28;20027;-85
2023/12/19 12:09:28;;;;;;;8.20;4.88;;;8.50;99.90;;;;;;4948075;28;20070;-87
2023/12/19 12:11:54;;;;;;;8.60;5.20;;;8.50;99.90;;;;;;4953246;28;20548;-85
2023/12/19 12:14:21;;;;;;;11.13;4.82;;;8.50;99.90;;;;;;4946451;28;20031;-85
2023/12/19 12:16:47;;;;;;;14.50;5.00;;;8.50;99.90;;;;;;4965621;28;20042;-86
2023/12/19 12:19:16;;;;;;;10.68;5.50;;;8.50;99.90;;;;;;4952791;28;20049;-86
2023/12/19 12:21:49;;;;;;;9.55;5.47;;;8.50;99.90;;;;;;4947865;28;20396;-85
2023/12/19 12:24:25;;;;;;;9.30;4.88;;;8.50;99.90;;;;;;4946671;28;20027;-85
2023/12/19 12:27:06;;;;;;;10.20;5.30;;;8.40;99.90;;;;;;4952322;28;20485;-84
2023/12/19 12:29:36;;;;;;;10.55;5.15;;;8.40;99.90;;;;;;4948777;28;20027;-86
2023/12/19 12:32:02;;;;;;;;;;;8.40;99.90;;;;;;4949325;28;20027;-85
2023/12/19 12:34:31;;;;;;;13.30;4.47;;;8.50;99.90;;;;;;4950906;28;20342;-87
2023/12/19 12:36:57;;;;;;;7.78;4.57;;;8.50;99.90;;;;;;4966997;28;20030;-87
2023/12/19 12:39:22;;;;;;;10.20;5.05;;;8.50;99.90;;;;;;4946373;28;20784;-85
2023/12/19 12:41:48;;;;;;;11.90;5.53;;;8.40;99.90;;;;;;4947788;28;20033;-86
2023/12/19 12:44:14;;;;;;;12.05;5.22;;;8.50;99.90;;;;;;4968277;28;20499;-84
2023/12/19 12:46:44;;;;;;;8.55;4.55;;;8.40;99.90;;;;;;4965985;28;20078;-86